createdAt,value
2023-05-02T00:02:03.863Z,12.60
2023-05-02T00:04:31.283Z,11.40
2023-05-02T00:06:58.736Z,13.30
2023-05-02T00:09:26.167Z,16.60
2023-05-02T00:11:53.382Z,13.70
2023-05-02T00:14:20.841Z,17.10
2023-05-02T00:16:48.222Z,15.10
2023-05-02T00:19:15.455Z,13.90
2023-05-02T00:21:42.723Z,10.30
2023-05-02T00:24:10.037Z,13.80
2023-05-02T00:26:37.276Z,12.10
2023-05-02T00:29:05.228Z,14.60
2023-05-02T00:31:32.501Z,17.30
2023-05-02T00:33:59.950Z,14.10
2023-05-02T00:36:27.715Z,11.10
2023-05-02T00:38:55.124Z,15.10
2023-05-02T00:41:22.566Z,8.40
2023-05-02T00:43:49.813Z,24.10
2023-05-02T00:46:17.387Z,23.00
2023-05-02T00:48:45.400Z,11.10
2023-05-02T00:51:13.579Z,6.90
2023-05-02T00:53:42.096Z,9.50
2023-05-02T00:56:10.061Z,8.40
2023-05-02T00:58:40.847Z,9.50
2023-05-02T01:01:32.199Z,9.00
2023-05-02T01:04:17.835Z,9.60
2023-05-02T01:07:11.202Z,6.50
2023-05-02T01:09:57.193Z,8.20
2023-05-02T01:12:42.570Z,8.90
2023-05-02T01:15:15.623Z,7.30
2023-05-02T01:17:45.338Z,6.90
2023-05-02T01:20:16.298Z,5.40
2023-05-02T01:22:43.972Z,7.20
2023-05-02T01:25:17.015Z,7.90
2023-05-02T01:28:22.802Z,8.80
2023-05-02T01:30:51.965Z,5.50
2023-05-02T01:33:20.322Z,5.50
2023-05-02T01:35:52.150Z,16.30
2023-05-02T01:38:21.383Z,12.90
2023-05-02T01:40:51.712Z,14.10
2023-05-02T01:43:21.593Z,14.60
2023-05-02T01:45:50.938Z,12.90
2023-05-02T01:48:20.333Z,13.10
2023-05-02T01:50:49.249Z,31.70
2023-05-02T01:53:17.556Z,23.20
2023-05-02T01:55:46.502Z,17.40
2023-05-02T01:58:14.993Z,18.20
2023-05-02T02:00:45.668Z,14.40
2023-05-02T02:03:14.495Z,17.00
2023-05-02T02:05:42.739Z,7.70
2023-05-02T02:08:10.047Z,6.30
2023-05-02T02:10:41.374Z,9.00
2023-05-02T02:13:18.453Z,3.70
2023-05-02T02:15:49.364Z,4.20
2023-05-02T02:18:23.723Z,5.10
2023-05-02T02:20:52.610Z,6.20
2023-05-02T02:23:22.510Z,5.20
2023-05-02T02:25:52.574Z,7.20
2023-05-02T02:28:19.868Z,6.70
2023-05-02T02:30:47.236Z,7.70
2023-05-02T02:33:14.644Z,5.60
2023-05-02T02:35:44.839Z,6.70
2023-05-02T02:38:17.022Z,5.50
2023-05-02T02:40:53.371Z,4.90
2023-05-02T02:43:54.073Z,7.10
2023-05-02T02:46:21.215Z,7.00
2023-05-02T02:49:09.623Z,19.20
2023-05-02T02:52:09.497Z,10.30
2023-05-02T02:54:47.092Z,8.30
2023-05-02T02:57:28.368Z,10.90
2023-05-02T03:00:00.190Z,9.50
2023-05-02T03:02:31.474Z,7.40
2023-05-02T03:04:59.404Z,11.50
2023-05-02T03:07:29.090Z,14.00
2023-05-02T03:09:56.397Z,9.50
2023-05-02T03:12:23.677Z,7.00
2023-05-02T03:14:51.686Z,11.00
2023-05-02T03:17:18.998Z,8.70
2023-05-02T03:19:47.438Z,5.70
2023-05-02T03:22:14.659Z,10.80
2023-05-02T03:24:41.944Z,17.80
2023-05-02T03:27:09.289Z,16.60
2023-05-02T03:29:36.579Z,12.90
2023-05-02T03:32:04.163Z,8.30
2023-05-02T03:34:31.572Z,6.90
2023-05-02T03:36:59.001Z,10.80
2023-05-02T03:39:26.225Z,10.70
2023-05-02T03:41:53.462Z,13.00
2023-05-02T03:44:20.852Z,9.60
2023-05-02T03:46:48.865Z,8.10
2023-05-02T03:49:16.227Z,13.80
2023-05-02T03:51:43.510Z,12.50
2023-05-02T03:54:10.871Z,23.50
2023-05-02T03:56:39.357Z,26.60
2023-05-02T03:59:07.975Z,17.40
2023-05-02T04:01:35.229Z,15.00
2023-05-02T04:04:02.701Z,14.50
2023-05-02T04:06:30.489Z,9.10
2023-05-02T04:08:59.497Z,8.90
2023-05-02T04:11:27.635Z,8.10
2023-05-02T04:13:54.850Z,5.70
2023-05-02T04:16:23.025Z,11.30
2023-05-02T04:18:50.301Z,8.20
2023-05-02T04:21:17.592Z,6.60
2023-05-02T04:23:44.867Z,6.70
2023-05-02T04:26:12.175Z,10.60
2023-05-02T04:28:39.479Z,6.60
2023-05-02T04:31:06.869Z,8.40
2023-05-02T04:33:34.902Z,7.00
2023-05-02T04:36:02.224Z,9.60
2023-05-02T04:38:29.523Z,5.50
2023-05-02T04:40:56.820Z,6.10
2023-05-02T04:43:24.858Z,6.00
2023-05-02T04:45:52.405Z,5.10
2023-05-02T04:48:19.699Z,13.10
2023-05-02T04:50:47.414Z,8.30
2023-05-02T04:53:14.744Z,6.80
2023-05-02T04:55:43.267Z,5.60
2023-05-02T04:58:10.711Z,7.60
2023-05-02T05:00:38.296Z,9.30
2023-05-02T05:03:06.668Z,5.10
2023-05-02T05:05:34.200Z,6.30
2023-05-02T05:08:01.408Z,7.00
2023-05-02T05:10:28.712Z,6.30
2023-05-02T05:12:55.967Z,7.60
2023-05-02T05:15:25.635Z,5.20
2023-05-02T05:17:53.419Z,5.30
2023-05-02T05:20:20.786Z,5.30
2023-05-02T05:22:48.306Z,4.50
2023-05-02T05:25:15.919Z,4.70
2023-05-02T05:27:43.270Z,7.80
2023-05-02T05:30:11.096Z,9.20
2023-05-02T05:32:38.398Z,5.40
2023-05-02T05:35:06.148Z,6.40
2023-05-02T05:37:33.471Z,5.40
2023-05-02T05:40:01.789Z,5.80
2023-05-02T05:42:29.251Z,5.60
2023-05-02T05:44:56.560Z,6.80
2023-05-02T05:47:24.217Z,6.20
2023-05-02T05:49:55.926Z,6.90
2023-05-02T05:52:23.360Z,8.10
2023-05-02T05:54:54.104Z,4.90
2023-05-02T05:57:21.481Z,5.10
2023-05-02T05:59:49.146Z,10.20
2023-05-02T06:02:16.856Z,6.60
2023-05-02T06:04:44.298Z,5.20
2023-05-02T06:07:11.657Z,6.30
2023-05-02T06:09:38.862Z,7.70
2023-05-02T06:12:06.126Z,9.20
2023-05-02T06:14:33.424Z,4.80
2023-05-02T06:17:01.204Z,8.50
2023-05-02T06:19:28.623Z,5.20
2023-05-02T06:21:56.110Z,5.20
2023-05-02T06:24:23.372Z,8.10
2023-05-02T06:26:51.978Z,7.90
2023-05-02T06:29:19.193Z,6.90
2023-05-02T06:31:46.794Z,8.20
2023-05-02T06:34:14.064Z,7.30
2023-05-02T06:36:41.251Z,7.00
2023-05-02T06:39:08.739Z,6.90
2023-05-02T06:41:36.171Z,9.30
2023-05-02T06:44:03.424Z,7.60
2023-05-02T06:46:31.697Z,8.10
2023-05-02T06:48:59.314Z,7.60
2023-05-02T06:51:27.957Z,7.10
2023-05-02T06:53:55.190Z,8.50
2023-05-02T06:56:22.676Z,7.90
2023-05-02T06:58:50.206Z,7.20
2023-05-02T07:01:17.437Z,7.10
2023-05-02T07:03:47.562Z,6.70
2023-05-02T07:06:14.861Z,6.30
2023-05-02T07:08:42.170Z,5.40
2023-05-02T07:11:09.550Z,4.40
2023-05-02T07:13:36.901Z,4.70
2023-05-02T07:16:04.688Z,5.70
2023-05-02T07:18:32.062Z,5.90
2023-05-02T07:21:01.545Z,5.40
2023-05-02T07:23:29.027Z,6.50
2023-05-02T07:25:56.299Z,5.90
2023-05-02T07:28:23.541Z,5.30
2023-05-02T07:30:50.860Z,5.90
2023-05-02T07:33:18.115Z,5.30
2023-05-02T07:35:45.511Z,9.50
2023-05-02T07:38:13.013Z,6.50
2023-05-02T07:40:40.219Z,7.30
2023-05-02T07:43:08.786Z,8.50
2023-05-02T07:45:37.752Z,6.70
2023-05-02T07:48:08.301Z,7.20
2023-05-02T07:50:35.744Z,7.20
2023-05-02T07:53:02.954Z,7.40
2023-05-02T07:55:31.491Z,6.70
2023-05-02T07:57:58.780Z,8.00
2023-05-02T08:00:26.647Z,6.40
2023-05-02T08:02:53.970Z,7.60
2023-05-02T08:05:21.353Z,6.60
2023-05-02T08:07:48.578Z,7.40
2023-05-02T08:10:15.814Z,5.70
2023-05-02T08:12:43.162Z,6.20
2023-05-02T08:15:12.984Z,5.90
2023-05-02T08:17:40.361Z,7.20
2023-05-02T08:20:08.242Z,4.80
2023-05-02T08:22:35.554Z,6.90
2023-05-02T08:25:02.884Z,6.60
2023-05-02T08:27:30.153Z,7.50
2023-05-02T08:29:58.670Z,6.40
2023-05-02T08:32:27.997Z,5.80
2023-05-02T08:34:57.145Z,7.50
2023-05-02T08:37:24.386Z,6.10
2023-05-02T08:39:51.628Z,6.30
2023-05-02T08:42:20.946Z,5.10
2023-05-02T08:44:49.170Z,4.90
2023-05-02T08:47:17.138Z,4.60
2023-05-02T08:49:46.186Z,6.00
2023-05-02T08:52:13.574Z,5.20
2023-05-02T08:54:41.583Z,5.00
2023-05-02T08:57:09.101Z,4.90
2023-05-02T08:59:36.754Z,3.70
2023-05-02T09:02:38.857Z,2.90
2023-05-02T09:05:08.111Z,4.80
2023-05-02T09:07:47.473Z,2.80
2023-05-02T09:10:15.975Z,4.10
2023-05-02T09:12:43.280Z,4.00
2023-05-02T09:15:11.832Z,5.00
2023-05-02T09:17:41.154Z,4.10
2023-05-02T09:20:08.910Z,3.90
2023-05-02T09:22:36.906Z,3.90
2023-05-02T09:25:08.600Z,3.40
2023-05-02T09:27:56.127Z,3.20
2023-05-02T09:30:25.802Z,4.30
2023-05-02T09:32:56.135Z,4.20
2023-05-02T09:35:24.201Z,6.70
2023-05-02T09:37:55.948Z,5.50
2023-05-02T09:40:24.544Z,6.60
2023-05-02T09:42:52.898Z,5.30
2023-05-02T09:45:22.077Z,6.80
2023-05-02T09:47:50.449Z,3.50
2023-05-02T09:50:38.094Z,4.20
2023-05-02T09:53:07.788Z,4.10
2023-05-02T09:55:36.052Z,4.30
2023-05-02T09:58:04.256Z,3.20
2023-05-02T10:00:40.756Z,2.70
2023-05-02T10:03:08.777Z,4.70
2023-05-02T10:05:40.113Z,6.10
2023-05-02T10:08:10.268Z,2.20
2023-05-02T10:10:39.482Z,1.20
2023-05-02T10:13:09.300Z,1.70
2023-05-02T10:15:42.736Z,2.80
2023-05-02T10:18:15.908Z,0.90
2023-05-02T10:21:01.868Z,1.30
2023-05-02T10:23:30.169Z,1.30
2023-05-02T10:26:00.168Z,0.80
2023-05-02T10:28:28.582Z,1.50
2023-05-02T10:30:56.468Z,1.20
2023-05-02T10:33:23.966Z,2.70
2023-05-02T10:35:51.418Z,2.90
2023-05-02T10:38:22.574Z,1.90
2023-05-02T10:41:07.835Z,1.60
2023-05-02T10:43:38.068Z,3.60
2023-05-02T10:46:34.714Z,1.80
2023-05-02T10:49:10.440Z,3.70
2023-05-02T10:51:40.076Z,3.10
2023-05-02T10:54:20.151Z,5.10
2023-05-02T10:57:02.459Z,2.60
2023-05-02T10:59:38.311Z,2.60
2023-05-02T11:02:28.558Z,4.70
2023-05-02T11:05:04.944Z,2.60
2023-05-02T11:07:36.846Z,6.30
2023-05-02T11:10:25.174Z,5.80
2023-05-02T11:12:57.183Z,3.40
2023-05-02T11:15:30.594Z,5.60
2023-05-02T11:18:02.341Z,4.00
2023-05-02T11:20:31.657Z,6.60
2023-05-02T11:23:22.978Z,4.60
2023-05-02T11:26:00.569Z,2.40
2023-05-02T11:28:37.220Z,6.30
2023-05-02T11:31:09.118Z,5.90
2023-05-02T11:33:36.862Z,3.60
2023-05-02T11:36:04.469Z,5.00
2023-05-02T11:38:39.049Z,5.40
2023-05-02T11:41:06.676Z,3.00
2023-05-02T11:43:34.022Z,4.50
2023-05-02T11:46:02.618Z,3.80
2023-05-02T11:48:31.263Z,6.60
2023-05-02T11:51:05.529Z,7.10
2023-05-02T11:53:33.827Z,4.00
2023-05-02T11:56:04.732Z,5.50
2023-05-02T11:58:33.993Z,3.60
2023-05-02T12:01:15.440Z,7.20
2023-05-02T12:03:43.835Z,4.70
2023-05-02T12:06:13.980Z,5.70
2023-05-02T12:21:49.554Z,5.30
2023-05-02T12:24:17.362Z,3.80
2023-05-02T12:26:44.602Z,3.60
2023-05-02T12:29:12.795Z,8.10
2023-05-02T12:31:40.363Z,7.80
2023-05-02T12:34:07.689Z,4.30
2023-05-02T12:36:35.349Z,6.00
2023-05-02T12:39:04.640Z,5.10
2023-05-02T12:41:38.682Z,7.00
2023-05-02T12:44:07.380Z,8.20
2023-05-02T12:46:34.808Z,8.10
2023-05-02T12:49:08.487Z,11.30
2023-05-02T12:51:36.711Z,7.10
2023-05-02T12:54:05.020Z,8.70
2023-05-02T12:56:43.895Z,7.20
2023-05-02T12:59:29.911Z,6.50
2023-05-02T13:01:57.555Z,6.30
2023-05-02T13:04:40.437Z,9.70
2023-05-02T13:07:08.127Z,7.00
2023-05-02T13:09:35.258Z,6.20
2023-05-02T13:12:04.587Z,7.50
2023-05-02T13:14:32.076Z,6.10
2023-05-02T13:17:00.081Z,8.30
2023-05-02T13:19:31.117Z,5.20
2023-05-02T13:21:58.524Z,3.30
2023-05-02T13:24:25.931Z,5.40
2023-05-02T13:26:53.276Z,3.80
2023-05-02T13:29:20.540Z,7.50
2023-05-02T13:31:47.803Z,6.10
2023-05-02T13:34:15.140Z,3.50
2023-05-02T13:36:46.496Z,6.30
2023-05-02T13:39:14.166Z,6.30
2023-05-02T13:41:41.667Z,4.00
2023-05-02T13:44:09.628Z,4.00
2023-05-02T13:46:38.090Z,5.80
2023-05-02T13:49:05.629Z,6.40
2023-05-02T13:51:33.127Z,6.40
2023-05-02T13:54:01.288Z,5.70
2023-05-02T13:56:28.705Z,4.40
2023-05-02T13:58:56.378Z,4.30
2023-05-02T14:01:24.192Z,4.30
2023-05-02T14:03:51.603Z,5.80
2023-05-02T14:06:19.082Z,4.70
2023-05-02T14:08:46.295Z,4.00
2023-05-02T14:11:14.085Z,4.70
2023-05-02T14:13:41.678Z,5.50
2023-05-02T14:16:09.055Z,3.80
2023-05-02T14:18:36.644Z,4.20
2023-05-02T14:21:04.562Z,7.20
2023-05-02T14:23:31.884Z,4.20
2023-05-02T14:25:59.253Z,4.40
2023-05-02T14:28:27.296Z,5.20
2023-05-02T14:30:54.645Z,5.30
2023-05-02T14:33:21.894Z,5.60
2023-05-02T14:35:49.504Z,5.50
2023-05-02T14:38:16.820Z,3.70
2023-05-02T14:40:44.421Z,5.10
2023-05-02T14:43:13.377Z,8.40
2023-05-02T14:45:40.656Z,5.20
2023-05-02T14:48:08.524Z,7.30
2023-05-02T14:50:37.592Z,6.50
2023-05-02T14:53:04.955Z,10.60
2023-05-02T14:55:37.110Z,5.20
2023-05-02T14:58:05.348Z,8.20
2023-05-02T15:00:35.020Z,5.70
2023-05-02T15:03:04.445Z,6.50
2023-05-02T15:05:33.705Z,8.20
2023-05-02T15:08:01.873Z,9.70
2023-05-02T15:10:29.439Z,6.20
2023-05-02T15:12:57.188Z,3.40
2023-05-02T15:15:25.530Z,4.70
2023-05-02T15:17:53.232Z,4.70
2023-05-02T15:20:20.685Z,6.30
2023-05-02T15:22:47.938Z,7.20
2023-05-02T15:25:15.206Z,4.60
2023-05-02T15:27:42.860Z,7.70
2023-05-02T15:30:10.742Z,6.70
2023-05-02T15:32:38.064Z,6.70
2023-05-02T15:35:08.995Z,8.10
2023-05-02T15:37:36.514Z,8.30
2023-05-02T15:40:04.410Z,10.10
2023-05-02T15:42:35.527Z,5.20
2023-05-02T15:45:04.644Z,4.60
2023-05-02T15:47:32.036Z,7.60
2023-05-02T15:50:00.131Z,11.50
2023-05-02T15:52:27.616Z,6.70
2023-05-02T15:54:56.375Z,7.00
2023-05-02T15:57:23.700Z,6.90
2023-05-02T15:59:50.967Z,7.30
2023-05-02T16:02:19.468Z,6.20
2023-05-02T16:04:46.698Z,7.50
2023-05-02T16:07:14.067Z,8.10
2023-05-02T16:09:42.735Z,6.60
2023-05-02T16:12:10.090Z,4.40
2023-05-02T16:14:37.298Z,8.10
2023-05-02T16:17:04.653Z,5.10
2023-05-02T16:19:31.979Z,7.90
2023-05-02T16:21:59.326Z,11.20
2023-05-02T16:24:26.599Z,8.60
2023-05-02T16:26:53.811Z,7.80
2023-05-02T16:29:21.058Z,8.40
2023-05-02T16:31:48.436Z,4.60
2023-05-02T16:34:16.081Z,4.80
2023-05-02T16:36:43.333Z,4.60
2023-05-02T16:39:11.023Z,4.00
2023-05-02T16:41:38.233Z,3.10
2023-05-02T16:44:05.530Z,11.70
2023-05-02T16:46:32.980Z,3.10
2023-05-02T16:49:00.227Z,3.90
2023-05-02T16:53:55.224Z,5.80
2023-05-02T16:56:22.582Z,4.20
2023-05-02T16:58:49.869Z,5.90
2023-05-02T17:01:17.510Z,5.00
2023-05-02T17:03:44.943Z,5.70
2023-05-02T17:06:12.267Z,10.30
2023-05-02T17:08:39.511Z,5.60
2023-05-02T17:11:07.996Z,7.00
2023-05-02T17:13:35.308Z,5.70
2023-05-02T17:16:02.642Z,3.70
2023-05-02T17:18:30.002Z,7.50
2023-05-02T17:20:57.214Z,4.90
2023-05-02T17:23:25.330Z,4.30
2023-05-02T17:25:52.574Z,5.60
2023-05-02T17:28:20.409Z,3.20
2023-05-02T17:30:48.607Z,3.60
2023-05-02T17:33:16.172Z,5.90
2023-05-02T17:35:43.387Z,5.50
2023-05-02T17:38:10.652Z,4.50
2023-05-02T17:40:38.327Z,5.40
2023-05-02T17:43:05.898Z,2.60
2023-05-02T17:45:33.156Z,4.00
2023-05-02T17:48:02.067Z,5.70
2023-05-02T17:50:30.735Z,3.10
2023-05-02T17:52:59.005Z,2.20
2023-05-02T17:55:26.219Z,5.70
2023-05-02T17:57:53.527Z,4.80
2023-05-02T18:00:20.810Z,6.70
2023-05-02T18:02:48.320Z,7.80
2023-05-02T18:05:17.546Z,21.60
2023-05-02T18:07:44.730Z,108.20
2023-05-02T18:10:12.155Z,126.10
2023-05-02T18:12:39.324Z,27.90
2023-05-02T18:15:08.106Z,13.60
2023-05-02T18:17:37.741Z,19.00
2023-05-02T18:20:07.183Z,22.40
2023-05-02T18:22:34.417Z,19.40
2023-05-02T18:25:02.109Z,48.20
2023-05-02T18:27:29.560Z,45.20
2023-05-02T18:29:57.062Z,30.00
2023-05-02T18:32:26.301Z,26.70
2023-05-02T18:34:53.617Z,25.50
2023-05-02T18:37:22.660Z,17.70
2023-05-02T18:39:49.965Z,18.20
2023-05-02T18:42:17.246Z,13.10
2023-05-02T18:44:44.623Z,16.80
2023-05-02T18:47:13.805Z,20.60
2023-05-02T18:49:41.732Z,12.80
2023-05-02T18:52:08.957Z,17.70
2023-05-02T18:54:36.394Z,21.80
2023-05-02T18:57:03.901Z,17.00
2023-05-02T18:59:31.389Z,5.20
2023-05-02T19:01:58.734Z,8.60
2023-05-02T19:04:26.301Z,6.60
2023-05-02T19:06:53.633Z,6.40
2023-05-02T19:09:21.972Z,7.90
2023-05-02T19:11:49.309Z,4.30
2023-05-02T19:14:16.499Z,5.30
2023-05-02T19:16:43.670Z,8.10
2023-05-02T19:19:10.904Z,4.00
2023-05-02T19:21:38.143Z,7.70
2023-05-02T19:24:05.874Z,8.80
2023-05-02T19:26:33.137Z,7.30
2023-05-02T19:29:00.465Z,4.30
2023-05-02T19:31:28.203Z,4.50
2023-05-02T19:33:55.465Z,6.50
2023-05-02T19:36:24.906Z,8.90
2023-05-02T19:38:54.151Z,5.20
2023-05-02T19:41:24.775Z,6.10
2023-05-02T19:43:52.922Z,9.10
2023-05-02T19:46:20.183Z,7.50
2023-05-02T19:48:47.922Z,5.40
2023-05-02T19:51:15.211Z,10.40
2023-05-02T19:53:42.402Z,7.80
2023-05-02T19:56:09.707Z,11.00
2023-05-02T19:58:36.953Z,6.50
2023-05-02T20:01:04.422Z,6.90
2023-05-02T20:03:31.915Z,10.20
2023-05-02T20:05:59.447Z,7.80
2023-05-02T20:08:28.220Z,8.60
2023-05-02T20:10:56.411Z,5.50
2023-05-02T20:13:23.827Z,7.40
2023-05-02T20:15:52.538Z,10.70
2023-05-02T20:18:20.333Z,12.50
2023-05-02T20:20:47.541Z,8.80
2023-05-02T20:23:14.845Z,15.40
2023-05-02T20:25:42.906Z,30.80
2023-05-02T20:28:10.415Z,29.10
2023-05-02T20:30:40.128Z,41.80
2023-05-02T20:33:15.557Z,31.70
2023-05-02T20:35:44.955Z,34.50
2023-05-02T20:38:12.544Z,38.00
2023-05-02T20:40:40.923Z,38.60
2023-05-02T20:43:08.968Z,42.10
2023-05-02T20:45:36.526Z,39.30
2023-05-02T20:48:03.917Z,30.60
2023-05-02T20:50:31.611Z,26.00
2023-05-02T20:52:59.558Z,16.40
2023-05-02T20:55:27.687Z,11.60
2023-05-02T20:57:54.908Z,10.00
2023-05-02T21:00:22.886Z,6.10
2023-05-02T21:02:50.234Z,8.50
2023-05-02T21:05:17.665Z,8.70
2023-05-02T21:07:45.167Z,8.80
2023-05-02T21:10:12.652Z,9.60
2023-05-02T21:12:39.903Z,5.90
2023-05-02T21:15:07.973Z,9.00
2023-05-02T21:17:35.431Z,9.50
2023-05-02T21:20:02.955Z,4.30
2023-05-02T21:22:30.512Z,4.40
2023-05-02T21:24:57.915Z,7.20
2023-05-02T21:27:26.051Z,6.40
2023-05-02T21:29:53.321Z,8.00
2023-05-02T21:32:21.241Z,7.00
2023-05-02T21:34:48.529Z,8.80
2023-05-02T21:37:15.748Z,6.20
2023-05-02T21:39:43.059Z,5.90
2023-05-02T21:42:10.275Z,7.20
2023-05-02T21:44:37.497Z,9.60
2023-05-02T21:47:04.795Z,30.60
2023-05-02T21:49:32.169Z,25.90
2023-05-02T21:51:59.872Z,16.70
2023-05-02T21:54:27.073Z,19.00
2023-05-02T21:56:54.642Z,18.00
2023-05-02T21:59:21.829Z,24.90
2023-05-02T22:02:08.021Z,24.80
2023-05-02T22:04:54.497Z,19.30
2023-05-02T22:07:22.212Z,22.70
2023-05-02T22:09:49.492Z,29.20
2023-05-02T22:12:16.787Z,31.60
2023-05-02T22:14:45.982Z,29.20
2023-05-02T22:17:13.865Z,18.00
2023-05-02T22:19:41.528Z,13.80
2023-05-02T22:22:08.840Z,14.50
2023-05-02T22:24:36.092Z,14.50
2023-05-02T22:27:03.313Z,12.80
2023-05-02T22:29:30.672Z,17.10
2023-05-02T22:31:57.840Z,19.40
2023-05-02T22:34:25.226Z,17.80
2023-05-02T22:36:52.673Z,16.40
2023-05-02T22:39:20.678Z,17.40
2023-05-02T22:41:47.888Z,18.80
2023-05-02T22:44:15.135Z,13.10
2023-05-02T22:46:42.388Z,14.00
2023-05-02T22:49:12.485Z,11.50
2023-05-02T22:51:42.780Z,14.30
2023-05-02T22:54:10.380Z,9.70
2023-05-02T22:56:37.852Z,11.10
2023-05-02T22:59:05.009Z,13.50
2023-05-02T23:01:33.497Z,15.80
2023-05-02T23:04:00.992Z,17.20
2023-05-02T23:06:28.925Z,16.20
2023-05-02T23:08:56.317Z,18.50
2023-05-02T23:11:23.510Z,16.70
2023-05-02T23:13:50.755Z,22.10
2023-05-02T23:16:17.957Z,31.20
2023-05-02T23:18:47.205Z,37.60
2023-05-02T23:21:15.443Z,45.50
2023-05-02T23:23:42.749Z,33.40
2023-05-02T23:26:11.057Z,32.90
2023-05-02T23:28:39.263Z,17.70
2023-05-02T23:31:07.826Z,9.90
2023-05-02T23:33:36.207Z,13.30
2023-05-02T23:36:04.184Z,13.50
2023-05-02T23:38:31.399Z,7.40
2023-05-02T23:40:59.308Z,7.00
2023-05-02T23:43:26.877Z,6.80
2023-05-02T23:45:54.172Z,7.80
2023-05-02T23:48:21.431Z,7.70
2023-05-02T23:50:48.623Z,10.10
2023-05-02T23:53:16.754Z,8.20
2023-05-02T23:55:43.887Z,12.60
2023-05-02T23:58:11.004Z,11.90
